createdAt,value
2018-02-21T00:00:43.310Z,128.50
2018-02-21T00:01:43.264Z,127.00
2018-02-21T00:02:43.221Z,129.90
2018-02-21T00:03:43.189Z,124.30
2018-02-21T00:04:43.139Z,127.50
2018-02-21T00:05:43.096Z,127.70
2018-02-21T00:06:43.056Z,129.20
2018-02-21T00:07:43.053Z,129.30
2018-02-21T00:08:42.970Z,129.90
2018-02-21T00:09:42.938Z,129.90
2018-02-21T00:10:42.885Z,123.00
2018-02-21T00:11:42.848Z,129.60
2018-02-21T00:12:42.803Z,128.10
2018-02-21T00:13:42.760Z,125.90
2018-02-21T00:14:42.729Z,130.00
2018-02-21T00:15:42.682Z,132.20
2018-02-21T00:16:42.640Z,124.80
2018-02-21T00:17:42.594Z,131.20
2018-02-21T00:18:42.552Z,132.30
2018-02-21T00:19:42.515Z,126.70
2018-02-21T00:20:42.472Z,132.00
2018-02-21T00:21:42.426Z,139.10
2018-02-21T00:22:42.417Z,124.60
2018-02-21T00:23:42.352Z,133.50
2018-02-21T00:24:42.304Z,130.10
2018-02-21T00:25:42.265Z,131.10
2018-02-21T00:26:42.226Z,132.30
2018-02-21T00:27:42.179Z,132.50
2018-02-21T00:28:42.156Z,130.50
2018-02-21T00:29:42.122Z,134.20
2018-02-21T00:30:42.053Z,136.70
2018-02-21T00:31:42.009Z,132.20
2018-02-21T00:32:41.963Z,138.60
2018-02-21T00:33:41.924Z,142.50
2018-02-21T00:34:41.880Z,140.10
2018-02-21T00:35:41.838Z,135.60
2018-02-21T00:36:41.806Z,140.40
2018-02-21T00:37:41.757Z,139.60
2018-02-21T00:38:41.712Z,144.00
2018-02-21T00:39:41.681Z,136.50
2018-02-21T00:40:41.629Z,143.30
2018-02-21T00:41:41.594Z,140.20
2018-02-21T00:42:41.548Z,137.50
2018-02-21T00:43:41.501Z,144.70
2018-02-21T00:44:41.467Z,145.20
2018-02-21T00:45:41.453Z,134.80
2018-02-21T00:46:41.378Z,142.10
2018-02-21T00:47:41.338Z,144.10
2018-02-21T00:48:41.293Z,140.40
2018-02-21T00:49:41.271Z,147.30
2018-02-21T00:50:41.212Z,142.20
2018-02-21T00:51:41.168Z,139.30
2018-02-21T00:52:41.124Z,136.80
2018-02-21T00:53:41.083Z,136.80
2018-02-21T00:54:41.041Z,138.80
2018-02-21T00:55:41.004Z,143.60
2018-02-21T00:56:40.984Z,139.00
2018-02-21T00:57:40.917Z,145.80
2018-02-21T00:58:40.875Z,140.40
2018-02-21T00:59:40.832Z,139.00
2018-02-21T01:00:40.789Z,143.50
2018-02-21T01:01:40.747Z,137.90
2018-02-21T01:02:40.708Z,145.90
2018-02-21T01:03:40.661Z,148.10
2018-02-21T01:04:40.621Z,144.50
2018-02-21T01:05:40.587Z,141.40
2018-02-21T01:06:40.536Z,148.50
2018-02-21T01:07:40.499Z,137.90
2018-02-21T01:08:40.456Z,141.10
2018-02-21T01:09:40.446Z,139.50
2018-02-21T01:10:40.375Z,144.20
2018-02-21T01:11:40.324Z,146.10
2018-02-21T01:12:40.285Z,132.50
2018-02-21T01:13:40.242Z,141.50
2018-02-21T01:14:40.201Z,143.60
2018-02-21T01:15:40.159Z,143.40
2018-02-21T01:16:40.117Z,146.80
2018-02-21T01:17:40.100Z,143.90
2018-02-21T01:18:40.062Z,139.10
2018-02-21T01:19:39.988Z,132.70
2018-02-21T01:20:39.949Z,140.80
2018-02-21T01:21:39.906Z,140.60
2018-02-21T01:22:39.862Z,147.00
2018-02-21T01:23:39.822Z,142.20
2018-02-21T01:24:39.783Z,144.40
2018-02-21T01:25:39.739Z,143.70
2018-02-21T01:26:39.725Z,142.60
2018-02-21T01:27:39.669Z,149.90
2018-02-21T01:28:39.615Z,142.90
2018-02-21T01:29:39.574Z,144.40
2018-02-21T01:30:39.537Z,140.00
2018-02-21T01:31:39.484Z,142.80
2018-02-21T01:32:39.449Z,144.00
2018-02-21T01:33:39.411Z,143.20
2018-02-21T01:34:39.364Z,140.60
2018-02-21T01:35:39.315Z,149.10
2018-02-21T01:36:39.304Z,144.60
2018-02-21T01:37:39.231Z,138.30
2018-02-21T01:38:39.189Z,144.60
2018-02-21T01:39:39.148Z,148.30
2018-02-21T01:40:39.107Z,152.30
2018-02-21T01:41:39.064Z,148.70
2018-02-21T01:42:39.019Z,142.50
2018-02-21T01:43:38.983Z,145.50
2018-02-21T01:44:38.938Z,146.70
2018-02-21T01:45:38.897Z,136.00
2018-02-21T01:46:38.850Z,147.90
2018-02-21T01:47:38.815Z,147.90
2018-02-21T01:48:38.772Z,152.40
2018-02-21T01:49:38.724Z,146.70
2018-02-21T01:50:38.681Z,140.80
2018-02-21T01:51:38.639Z,142.30
2018-02-21T01:52:38.606Z,138.00
2018-02-21T01:53:38.555Z,148.00
2018-02-21T01:54:38.661Z,146.00
2018-02-21T01:55:38.471Z,140.80
2018-02-21T01:56:38.430Z,143.80
2018-02-21T01:57:38.396Z,148.10
2018-02-21T01:58:38.344Z,154.10
2018-02-21T01:59:38.303Z,140.70
2018-02-21T02:00:38.263Z,151.10
2018-02-21T02:01:38.232Z,146.20
2018-02-21T02:02:38.175Z,148.90
2018-02-21T02:03:38.137Z,144.50
2018-02-21T02:04:38.091Z,152.50
2018-02-21T02:05:38.050Z,142.50
2018-02-21T02:06:38.006Z,142.20
2018-02-21T02:07:37.971Z,142.10
2018-02-21T02:08:37.942Z,144.80
2018-02-21T02:09:37.880Z,145.10
2018-02-21T02:10:37.836Z,143.70
2018-02-21T02:11:37.798Z,144.20
2018-02-21T02:12:37.753Z,143.20
2018-02-21T02:13:37.712Z,159.40
2018-02-21T02:14:37.666Z,158.10
2018-02-21T02:15:37.629Z,143.50
2018-02-21T02:16:37.585Z,156.50
2018-02-21T02:17:37.543Z,152.40
2018-02-21T02:18:37.506Z,160.50
2018-02-21T02:19:37.457Z,157.00
2018-02-21T02:20:37.417Z,158.60
2018-02-21T02:21:37.373Z,153.80
2018-02-21T02:22:37.329Z,152.90
2018-02-21T02:23:37.289Z,162.20
2018-02-21T02:24:37.248Z,158.10
2018-02-21T02:25:37.209Z,148.00
2018-02-21T02:26:37.168Z,154.00
2018-02-21T02:27:37.128Z,160.40
2018-02-21T02:28:37.086Z,148.80
2018-02-21T02:29:37.038Z,151.10
2018-02-21T02:30:36.994Z,155.50
2018-02-21T02:31:36.953Z,147.30
2018-02-21T02:32:36.916Z,145.40
2018-02-21T02:33:36.868Z,152.80
2018-02-21T02:34:36.828Z,149.00
2018-02-21T02:35:36.782Z,143.60
2018-02-21T02:36:36.739Z,146.10
2018-02-21T02:37:36.696Z,143.60
2018-02-21T02:38:36.652Z,135.20
2018-02-21T02:39:36.624Z,136.40
2018-02-21T02:40:36.582Z,138.70
2018-02-21T02:41:36.531Z,137.80
2018-02-21T02:42:36.483Z,142.50
2018-02-21T02:43:36.447Z,133.90
2018-02-21T02:44:36.403Z,136.60
2018-02-21T02:45:36.366Z,136.50
2018-02-21T02:46:36.317Z,137.40
2018-02-21T02:47:36.273Z,137.40
2018-02-21T02:48:36.234Z,141.50
2018-02-21T02:49:36.188Z,137.90
2018-02-21T02:50:36.153Z,134.50
2018-02-21T02:51:36.106Z,135.90
2018-02-21T02:52:36.098Z,146.30
2018-02-21T02:53:36.021Z,139.20
2018-02-21T02:54:35.979Z,142.10
2018-02-21T02:55:35.934Z,135.40
2018-02-21T02:56:35.896Z,131.80
2018-02-21T02:57:35.857Z,129.20
2018-02-21T02:58:35.809Z,143.00
2018-02-21T02:59:35.766Z,139.80
2018-02-21T03:00:35.724Z,145.40
2018-02-21T03:01:35.682Z,156.00
2018-02-21T03:02:35.643Z,149.70
2018-02-21T03:03:35.599Z,141.40
2018-02-21T03:04:35.563Z,145.30
2018-02-21T03:05:35.522Z,149.90
2018-02-21T03:06:35.476Z,152.00
2018-02-21T03:07:35.447Z,134.90
2018-02-21T03:08:35.389Z,143.20
2018-02-21T03:09:35.346Z,142.60
2018-02-21T03:10:35.305Z,140.60
2018-02-21T03:11:35.259Z,150.50
2018-02-21T03:12:35.220Z,138.40
2018-02-21T03:13:35.196Z,147.80
2018-02-21T03:14:35.132Z,145.00
2018-02-21T03:15:35.107Z,143.70
2018-02-21T03:16:35.050Z,145.90
2018-02-21T03:17:35.018Z,137.80
2018-02-21T03:18:34.971Z,140.40
2018-02-21T03:19:34.923Z,146.50
2018-02-21T03:20:34.877Z,138.80
2018-02-21T03:21:34.863Z,145.10
2018-02-21T03:22:34.811Z,139.90
2018-02-21T03:23:34.748Z,146.70
2018-02-21T03:24:34.705Z,141.00
2018-02-21T03:25:34.664Z,129.40
2018-02-21T03:26:34.625Z,138.80
2018-02-21T03:27:34.611Z,134.40
2018-02-21T03:28:34.538Z,136.20
2018-02-21T03:29:34.496Z,134.10
2018-02-21T03:30:34.459Z,138.30
2018-02-21T03:31:34.412Z,139.60
2018-02-21T03:32:34.364Z,142.40
2018-02-21T03:33:34.323Z,138.80
2018-02-21T03:34:34.302Z,136.50
2018-02-21T03:35:34.241Z,133.70
2018-02-21T03:36:34.198Z,136.80
2018-02-21T03:37:34.155Z,127.10
2018-02-21T03:38:34.112Z,134.20
2018-02-21T03:39:34.071Z,132.80
2018-02-21T03:40:34.036Z,133.50
2018-02-21T03:41:33.996Z,144.60
2018-02-21T03:42:33.945Z,136.70
2018-02-21T03:43:33.901Z,130.30
2018-02-21T03:44:33.863Z,125.80
2018-02-21T03:45:33.815Z,139.00
2018-02-21T03:46:33.783Z,131.60
2018-02-21T03:47:33.737Z,135.70
2018-02-21T03:48:33.689Z,136.00
2018-02-21T03:49:33.711Z,133.80
2018-02-21T03:50:33.608Z,128.50
2018-02-21T03:51:33.567Z,135.20
2018-02-21T03:52:33.522Z,139.20
2018-02-21T03:53:33.478Z,136.70
2018-02-21T03:54:33.438Z,133.90
2018-02-21T03:55:33.394Z,136.30
2018-02-21T03:56:33.353Z,132.30
2018-02-21T03:57:33.309Z,135.10
2018-02-21T03:58:33.272Z,132.70
2018-02-21T03:59:33.226Z,133.20
2018-02-21T04:00:33.183Z,131.90
2018-02-21T04:01:33.153Z,127.40
2018-02-21T04:02:33.098Z,137.60
2018-02-21T04:03:33.056Z,130.20
2018-02-21T04:04:33.021Z,130.70
2018-02-21T04:05:32.977Z,130.70
2018-02-21T04:06:32.927Z,126.90
2018-02-21T04:07:32.890Z,135.90
2018-02-21T04:08:32.847Z,121.90
2018-02-21T04:09:32.814Z,131.70
2018-02-21T04:10:32.763Z,123.30
2018-02-21T04:11:32.718Z,126.70
2018-02-21T04:12:32.678Z,126.30
2018-02-21T04:13:32.636Z,119.90
2018-02-21T04:14:32.596Z,126.40
2018-02-21T04:15:32.552Z,120.10
2018-02-21T04:16:32.516Z,120.40
2018-02-21T04:17:32.476Z,125.30
2018-02-21T04:18:32.431Z,131.10
2018-02-21T04:19:32.391Z,125.40
2018-02-21T04:20:32.346Z,123.70
2018-02-21T04:21:32.305Z,124.40
2018-02-21T04:22:32.270Z,122.70
2018-02-21T04:23:32.221Z,120.60
2018-02-21T04:24:32.215Z,117.80
2018-02-21T04:25:32.135Z,123.90
2018-02-21T04:26:32.090Z,127.60
2018-02-21T04:27:32.049Z,121.30
2018-02-21T04:28:32.019Z,131.10
2018-02-21T04:29:31.965Z,125.10
2018-02-21T04:30:31.956Z,133.20
2018-02-21T04:31:31.886Z,124.80
2018-02-21T04:32:31.851Z,126.50
2018-02-21T04:33:31.802Z,126.10
2018-02-21T04:34:31.765Z,122.00
2018-02-21T04:35:31.718Z,128.10
2018-02-21T04:36:31.673Z,130.10
2018-02-21T04:37:31.642Z,124.80
2018-02-21T04:38:31.589Z,131.10
2018-02-21T04:39:31.550Z,116.70
2018-02-21T04:40:31.532Z,121.90
2018-02-21T04:41:31.467Z,121.20
2018-02-21T04:42:31.427Z,124.90
2018-02-21T04:43:31.388Z,120.50
2018-02-21T04:44:31.344Z,128.70
2018-02-21T04:45:31.300Z,120.30
2018-02-21T04:46:31.259Z,119.10
2018-02-21T04:47:31.215Z,121.40
2018-02-21T04:48:31.177Z,113.50
2018-02-21T04:49:31.140Z,122.30
2018-02-21T04:50:31.092Z,121.50
2018-02-21T04:51:31.067Z,123.20
2018-02-21T04:52:31.011Z,121.20
2018-02-21T04:53:30.965Z,119.30
2018-02-21T04:54:30.929Z,117.00
2018-02-21T04:55:30.882Z,107.80
2018-02-21T04:56:30.843Z,122.50
2018-02-21T04:57:30.802Z,120.50
2018-02-21T04:58:30.759Z,121.80
2018-02-21T04:59:30.719Z,120.90
2018-02-21T05:00:30.677Z,125.10
2018-02-21T05:01:30.638Z,114.70
2018-02-21T05:02:30.590Z,118.90
2018-02-21T05:03:30.551Z,127.10
2018-02-21T05:04:30.517Z,119.10
2018-02-21T05:05:30.473Z,121.50
2018-02-21T05:06:30.422Z,118.20
2018-02-21T05:07:30.384Z,118.90
2018-02-21T05:08:30.367Z,113.30
2018-02-21T05:09:30.304Z,121.20
2018-02-21T05:10:30.260Z,117.80
2018-02-21T05:11:30.216Z,122.60
2018-02-21T05:12:30.172Z,123.50
2018-02-21T05:13:30.135Z,118.60
2018-02-21T05:14:30.089Z,122.10
2018-02-21T05:15:30.060Z,121.10
2018-02-21T05:16:30.009Z,118.80
2018-02-21T05:17:29.970Z,118.50
2018-02-21T05:18:29.931Z,116.90
2018-02-21T05:19:29.882Z,118.30
2018-02-21T05:20:29.843Z,122.60
2018-02-21T05:21:29.804Z,129.90
2018-02-21T05:22:29.763Z,121.70
2018-02-21T05:23:29.723Z,120.20
2018-02-21T05:24:29.676Z,120.60
2018-02-21T05:25:29.638Z,118.80
2018-02-21T05:26:29.603Z,118.10
2018-02-21T05:27:29.582Z,117.60
2018-02-21T05:28:29.514Z,117.40
2018-02-21T05:29:29.485Z,118.10
2018-02-21T05:30:29.430Z,120.80
2018-02-21T05:31:29.386Z,115.20
2018-02-21T05:32:29.345Z,115.50
2018-02-21T05:33:29.304Z,115.70
2018-02-21T05:34:29.267Z,118.90
2018-02-21T05:35:29.225Z,121.20
2018-02-21T05:36:29.182Z,128.00
2018-02-21T05:37:29.145Z,122.60
2018-02-21T05:38:29.100Z,112.60
2018-02-21T05:39:29.055Z,124.10
2018-02-21T05:40:29.010Z,113.20
2018-02-21T05:41:28.971Z,112.90
2018-02-21T05:42:28.929Z,116.40
2018-02-21T05:43:28.900Z,114.80
2018-02-21T05:44:28.850Z,120.00
2018-02-21T05:45:28.818Z,117.30
2018-02-21T05:46:28.772Z,114.10
2018-02-21T05:47:28.720Z,114.90
2018-02-21T05:48:28.683Z,119.80
2018-02-21T05:49:28.647Z,119.80
2018-02-21T05:50:28.596Z,113.50
2018-02-21T05:51:28.555Z,109.50
2018-02-21T05:52:28.511Z,117.10
2018-02-21T05:53:28.473Z,114.30
2018-02-21T05:54:28.430Z,110.10
2018-02-21T05:55:28.395Z,112.80
2018-02-21T05:56:28.350Z,113.10
2018-02-21T05:57:28.308Z,114.60
2018-02-21T05:58:28.274Z,111.00
2018-02-21T05:59:28.221Z,109.30
2018-02-21T06:00:28.180Z,109.30
2018-02-21T06:01:28.150Z,111.60
2018-02-21T06:02:28.097Z,111.00
2018-02-21T06:03:28.054Z,106.40
2018-02-21T06:04:28.013Z,108.60
2018-02-21T06:05:27.970Z,104.70
2018-02-21T06:06:27.931Z,111.20
2018-02-21T06:07:27.888Z,110.20
2018-02-21T06:08:27.849Z,114.50
2018-02-21T06:09:27.805Z,110.20
2018-02-21T06:10:27.763Z,118.30
2018-02-21T06:11:27.723Z,111.70
2018-02-21T06:12:27.679Z,115.10
2018-02-21T06:13:27.646Z,111.80
2018-02-21T06:14:27.598Z,111.10
2018-02-21T06:15:27.554Z,114.70
2018-02-21T06:16:27.512Z,115.50
2018-02-21T06:17:27.472Z,112.10
2018-02-21T06:18:27.494Z,119.50
2018-02-21T06:19:27.390Z,108.10
2018-02-21T06:20:27.349Z,117.90
2018-02-21T06:21:27.306Z,116.80
2018-02-21T06:22:27.295Z,111.70
2018-02-21T06:23:27.223Z,115.90
2018-02-21T06:24:27.427Z,115.30
2018-02-21T06:25:27.438Z,112.60
2018-02-21T06:26:27.097Z,121.90
2018-02-21T06:27:27.054Z,124.70
2018-02-21T06:28:27.015Z,110.30
2018-02-21T06:29:27.009Z,115.70
2018-02-21T06:30:26.932Z,116.50
2018-02-21T06:31:26.892Z,108.90
2018-02-21T06:32:26.849Z,113.60
2018-02-21T06:33:26.806Z,123.80
2018-02-21T06:34:26.769Z,117.70
2018-02-21T06:35:26.722Z,116.80
2018-02-21T06:36:26.682Z,114.60
2018-02-21T06:37:26.641Z,124.50
2018-02-21T06:38:26.600Z,124.80
2018-02-21T06:39:26.557Z,124.30
2018-02-21T06:40:26.513Z,120.50
2018-02-21T06:41:26.475Z,116.50
2018-02-21T06:42:26.432Z,112.10
2018-02-21T06:43:26.417Z,124.00
2018-02-21T06:44:26.364Z,119.30
2018-02-21T06:45:26.326Z,117.50
2018-02-21T06:46:26.267Z,118.20
2018-02-21T06:47:26.223Z,126.50
2018-02-21T06:48:26.178Z,121.40
2018-02-21T06:49:26.143Z,124.50
2018-02-21T06:50:26.101Z,122.20
2018-02-21T06:51:26.056Z,119.20
2018-02-21T06:52:26.014Z,118.90
2018-02-21T06:53:25.976Z,121.00
2018-02-21T06:54:25.937Z,116.40
2018-02-21T06:55:25.889Z,112.10
2018-02-21T06:56:25.847Z,123.90
2018-02-21T06:57:25.809Z,123.40
2018-02-21T06:58:25.772Z,125.30
2018-02-21T06:59:25.725Z,120.20
2018-02-21T07:00:25.683Z,123.70
2018-02-21T07:01:25.655Z,121.80
2018-02-21T07:02:25.599Z,118.90
2018-02-21T07:03:25.557Z,124.80
2018-02-21T07:04:25.515Z,116.60
2018-02-21T07:05:25.471Z,130.90
2018-02-21T07:06:25.437Z,129.00
2018-02-21T07:07:25.393Z,123.20
2018-02-21T07:08:25.355Z,123.30
2018-02-21T07:09:25.306Z,123.40
2018-02-21T07:10:25.282Z,120.10
2018-02-21T07:11:25.224Z,129.10
2018-02-21T07:12:25.182Z,123.50
2018-02-21T07:13:25.144Z,120.20
2018-02-21T07:14:25.105Z,119.80
2018-02-21T07:15:25.144Z,129.70
2018-02-21T07:16:25.019Z,125.00
2018-02-21T07:17:24.977Z,122.80
2018-02-21T07:18:24.934Z,118.20
2018-02-21T07:19:24.903Z,114.60
2018-02-21T07:20:24.857Z,126.00
2018-02-21T07:21:24.817Z,120.00
2018-02-21T07:22:24.773Z,120.60
2018-02-21T07:23:24.732Z,128.30
2018-02-21T07:24:24.689Z,117.80
2018-02-21T07:25:24.647Z,122.50
2018-02-21T07:26:24.615Z,124.20
2018-02-21T07:27:24.565Z,122.90
2018-02-21T07:28:24.528Z,119.50
2018-02-21T07:29:24.487Z,123.10
2018-02-21T07:30:24.440Z,126.30
2018-02-21T07:31:24.400Z,114.10
2018-02-21T07:32:24.358Z,116.20
2018-02-21T07:33:24.317Z,120.50
2018-02-21T07:34:24.280Z,122.10
2018-02-21T07:35:24.239Z,122.30
2018-02-21T07:36:24.195Z,120.90
2018-02-21T07:37:24.169Z,126.10
2018-02-21T07:38:24.113Z,113.00
2018-02-21T07:39:24.073Z,115.90
2018-02-21T07:40:24.034Z,119.80
2018-02-21T07:41:23.992Z,120.40
2018-02-21T07:42:23.951Z,117.70
2018-02-21T07:43:23.911Z,114.50
2018-02-21T07:44:23.888Z,114.70
2018-02-21T07:45:23.831Z,107.30
2018-02-21T07:46:23.790Z,116.00
2018-02-21T07:47:23.752Z,123.80
2018-02-21T07:48:23.711Z,111.40
2018-02-21T07:49:23.672Z,115.90
2018-02-21T07:50:23.635Z,117.20
2018-02-21T07:51:24.430Z,113.40
2018-02-21T07:52:23.556Z,112.20
2018-02-21T07:53:23.534Z,114.10
2018-02-21T07:54:23.479Z,112.80
2018-02-21T07:55:23.446Z,112.00
2018-02-21T07:56:23.400Z,108.10
2018-02-21T07:57:23.373Z,112.10
2018-02-21T07:58:23.326Z,116.00
2018-02-21T07:59:23.296Z,116.20
2018-02-21T08:00:23.251Z,115.40
2018-02-21T08:01:23.210Z,112.70
2018-02-21T08:02:23.176Z,113.50
2018-02-21T08:03:23.139Z,114.80
2018-02-21T08:04:23.111Z,111.90
2018-02-21T08:05:23.065Z,116.90
2018-02-21T08:06:23.029Z,114.40
2018-02-21T08:07:22.990Z,111.00
2018-02-21T08:08:22.955Z,120.60
2018-02-21T08:09:22.923Z,118.80
2018-02-21T08:10:22.885Z,116.70
2018-02-21T08:11:22.850Z,116.40
2018-02-21T08:12:22.815Z,118.20
2018-02-21T08:13:22.780Z,116.80
2018-02-21T08:14:22.759Z,126.80
2018-02-21T08:15:22.752Z,121.90
2018-02-21T08:16:22.670Z,125.30
2018-02-21T08:17:22.635Z,116.90
2018-02-21T08:18:22.599Z,127.60
2018-02-21T08:19:22.565Z,123.30
2018-02-21T08:20:22.531Z,119.60
2018-02-21T08:21:22.495Z,123.20
2018-02-21T08:22:22.461Z,125.40
2018-02-21T08:23:22.425Z,129.60
2018-02-21T08:24:22.399Z,126.20
2018-02-21T08:25:22.359Z,125.00
2018-02-21T08:26:22.326Z,116.30
2018-02-21T08:27:22.292Z,125.00
2018-02-21T08:28:22.294Z,125.50
2018-02-21T08:29:22.222Z,121.60
2018-02-21T08:30:22.190Z,130.80
2018-02-21T08:31:22.151Z,124.70
2018-02-21T08:32:22.122Z,127.00
2018-02-21T08:33:22.094Z,124.10
2018-02-21T08:34:22.049Z,126.20
2018-02-21T08:35:22.020Z,126.40
2018-02-21T08:36:21.984Z,132.80
2018-02-21T08:37:21.958Z,130.60
2018-02-21T08:38:21.923Z,134.80
2018-02-21T08:39:21.886Z,135.60
2018-02-21T08:40:21.855Z,137.30
2018-02-21T08:41:21.837Z,132.20
2018-02-21T08:42:21.786Z,126.90
2018-02-21T08:43:21.756Z,132.20
2018-02-21T08:44:21.725Z,132.90
2018-02-21T08:45:21.693Z,134.70
2018-02-21T08:46:21.661Z,130.40
2018-02-21T08:47:21.628Z,133.50
2018-02-21T08:48:21.595Z,131.60
2018-02-21T08:49:21.573Z,137.20
2018-02-21T08:50:21.532Z,141.00
2018-02-21T08:51:21.505Z,143.20
2018-02-21T08:52:21.467Z,141.70
2018-02-21T08:53:21.436Z,144.00
2018-02-21T08:54:21.407Z,136.80
2018-02-21T08:55:21.382Z,136.90
2018-02-21T08:56:21.343Z,142.10
2018-02-21T08:57:21.312Z,144.30
2018-02-21T08:58:21.284Z,143.90
2018-02-21T08:59:21.250Z,148.00
2018-02-21T09:00:21.220Z,147.00
2018-02-21T09:01:21.192Z,145.20
2018-02-21T09:02:21.153Z,149.30
2018-02-21T09:03:21.126Z,139.80
2018-02-21T09:04:21.143Z,142.30
2018-02-21T09:05:21.067Z,143.10
2018-02-21T09:06:21.035Z,142.10
2018-02-21T09:07:21.006Z,140.30
2018-02-21T09:08:20.977Z,141.70
2018-02-21T09:09:20.945Z,142.60
2018-02-21T09:10:20.912Z,137.90
2018-02-21T09:11:20.885Z,145.60
2018-02-21T09:12:20.857Z,143.70
2018-02-21T09:13:20.822Z,143.10
2018-02-21T09:14:20.794Z,145.30
2018-02-21T09:15:20.758Z,148.90
2018-02-21T09:16:20.738Z,147.30
2018-02-21T09:17:20.702Z,150.30
2018-02-21T09:18:20.670Z,145.20
2018-02-21T09:19:20.638Z,148.00
2018-02-21T09:20:20.610Z,143.10
2018-02-21T09:21:20.615Z,143.60
2018-02-21T09:22:20.557Z,141.80
2018-02-21T09:23:20.544Z,142.30
2018-02-21T09:24:20.490Z,143.40
2018-02-21T09:25:20.461Z,142.80
2018-02-21T09:26:20.426Z,148.60
2018-02-21T09:27:20.398Z,142.80
2018-02-21T09:28:20.368Z,149.40
2018-02-21T09:29:20.339Z,145.50
2018-02-21T09:30:20.312Z,148.30
2018-02-21T09:31:20.281Z,145.70
2018-02-21T09:32:20.255Z,144.50
2018-02-21T09:33:20.235Z,149.50
2018-02-21T09:34:20.196Z,146.30
2018-02-21T09:35:20.293Z,150.30
2018-02-21T09:36:20.141Z,150.60
2018-02-21T09:37:20.113Z,139.30
2018-02-21T09:38:20.085Z,144.20
2018-02-21T09:39:20.055Z,142.20
2018-02-21T09:40:20.032Z,148.30
2018-02-21T09:41:19.997Z,145.50
2018-02-21T09:42:19.978Z,140.80
2018-02-21T09:43:19.947Z,141.20
2018-02-21T09:44:19.912Z,146.20
2018-02-21T09:45:19.883Z,148.90
2018-02-21T09:46:19.853Z,142.70
2018-02-21T09:47:19.828Z,145.70
2018-02-21T09:48:19.846Z,143.30
2018-02-21T09:49:19.772Z,133.60
2018-02-21T09:50:19.745Z,142.40
2018-02-21T09:51:19.719Z,145.00
2018-02-21T09:52:19.702Z,139.10
2018-02-21T09:53:19.662Z,141.60
2018-02-21T09:54:19.636Z,140.90
2018-02-21T09:55:19.607Z,146.40
2018-02-21T09:56:19.581Z,145.00
2018-02-21T09:57:19.550Z,133.90
2018-02-21T09:58:19.526Z,133.90
2018-02-21T09:59:19.499Z,135.70
2018-02-21T10:00:19.472Z,135.70
2018-02-21T10:01:19.450Z,145.50
2018-02-21T10:02:19.420Z,140.00
2018-02-21T10:03:19.392Z,152.00
2018-02-21T10:04:19.369Z,152.00
2018-02-21T10:05:19.339Z,142.70
2018-02-21T10:06:19.316Z,142.10
2018-02-21T10:07:19.300Z,141.40
2018-02-21T10:08:19.262Z,134.40
2018-02-21T10:09:19.241Z,144.90
2018-02-21T10:10:19.210Z,138.40
2018-02-21T10:11:19.183Z,142.70
2018-02-21T10:12:19.159Z,136.30
2018-02-21T10:13:19.140Z,142.40
2018-02-21T10:14:19.107Z,147.10
2018-02-21T10:15:19.079Z,136.00
2018-02-21T10:16:19.056Z,133.30
2018-02-21T10:17:19.031Z,134.30
2018-02-21T10:18:19.005Z,137.80
2018-02-21T10:19:18.980Z,137.00
2018-02-21T10:20:18.996Z,137.50
2018-02-21T10:21:18.930Z,135.50
2018-02-21T10:22:18.920Z,135.60
2018-02-21T10:23:18.882Z,135.50
2018-02-21T10:24:18.863Z,134.90
2018-02-21T10:25:18.834Z,131.40
2018-02-21T10:26:18.809Z,132.30
2018-02-21T10:27:18.788Z,137.70
2018-02-21T10:28:18.759Z,130.70
2018-02-21T10:29:18.735Z,138.70
2018-02-21T10:30:18.713Z,127.80
2018-02-21T10:31:18.684Z,127.80
2018-02-21T10:32:18.663Z,131.20
2018-02-21T10:33:18.641Z,130.50
2018-02-21T10:34:18.615Z,126.10
2018-02-21T10:35:18.593Z,128.90
2018-02-21T10:36:18.562Z,130.90
2018-02-21T10:37:18.539Z,133.00
2018-02-21T10:38:18.516Z,120.70
2018-02-21T10:39:18.495Z,120.10
2018-02-21T10:40:18.469Z,126.40
2018-02-21T10:41:18.441Z,126.70
2018-02-21T10:42:18.415Z,127.80
2018-02-21T10:43:18.391Z,130.00
2018-02-21T10:44:18.368Z,133.40
2018-02-21T10:45:18.363Z,139.50
2018-02-21T10:46:18.323Z,131.00
2018-02-21T10:47:18.297Z,126.20
2018-02-21T10:48:18.270Z,124.00
2018-02-21T10:49:18.252Z,134.50
2018-02-21T10:50:18.225Z,130.20
2018-02-21T10:51:18.203Z,132.40
2018-02-21T10:52:18.177Z,128.20
2018-02-21T10:53:18.155Z,118.90
2018-02-21T10:54:18.130Z,123.50
2018-02-21T10:55:18.105Z,129.90
2018-02-21T10:56:18.081Z,137.70
2018-02-21T10:57:18.082Z,124.90
2018-02-21T10:58:18.032Z,129.60
2018-02-21T10:59:18.012Z,132.40
2018-02-21T11:00:17.990Z,130.50
2018-02-21T11:01:17.968Z,126.10
2018-02-21T11:02:17.942Z,130.00
2018-02-21T11:03:17.917Z,134.80
2018-02-21T11:04:17.926Z,129.00
2018-02-21T11:05:17.874Z,133.10
2018-02-21T11:06:17.849Z,126.20
2018-02-21T11:07:17.824Z,130.60
2018-02-21T11:08:17.801Z,132.80
2018-02-21T11:09:17.782Z,131.90
2018-02-21T11:10:17.758Z,132.30
2018-02-21T11:11:17.733Z,133.20
2018-02-21T11:12:17.709Z,129.60
2018-02-21T11:13:17.686Z,137.80
2018-02-21T11:14:17.662Z,130.40
2018-02-21T11:15:17.639Z,130.50
2018-02-21T11:16:17.633Z,134.20
2018-02-21T11:17:17.591Z,129.80
2018-02-21T11:18:17.566Z,131.40
2018-02-21T11:19:17.548Z,130.40
2018-02-21T11:20:17.521Z,132.60
2018-02-21T11:21:17.498Z,133.90
2018-02-21T11:22:17.475Z,129.90
2018-02-21T11:23:17.456Z,128.90
2018-02-21T11:24:17.430Z,132.00
2018-02-21T11:25:17.405Z,129.50
2018-02-21T11:26:17.394Z,137.20
2018-02-21T11:27:17.360Z,129.40
2018-02-21T11:28:17.337Z,131.00
2018-02-21T11:29:17.312Z,132.50
2018-02-21T11:30:17.288Z,125.20
2018-02-21T11:31:17.266Z,133.70
2018-02-21T11:32:17.247Z,133.20
2018-02-21T11:33:17.221Z,127.00
2018-02-21T11:34:17.199Z,137.50
2018-02-21T11:35:17.183Z,135.00
2018-02-21T11:36:17.156Z,122.60
2018-02-21T11:37:17.132Z,124.20
2018-02-21T11:38:17.120Z,120.40
2018-02-21T11:39:17.085Z,118.90
2018-02-21T11:40:17.063Z,122.90
2018-02-21T11:41:17.040Z,124.60
2018-02-21T11:42:17.025Z,123.20
2018-02-21T11:43:16.993Z,116.40
2018-02-21T11:44:16.971Z,123.50
2018-02-21T11:45:16.959Z,117.40
2018-02-21T11:46:16.925Z,121.30
2018-02-21T11:47:16.907Z,122.50
2018-02-21T11:48:16.881Z,122.50
2018-02-21T11:49:16.870Z,127.30
2018-02-21T11:50:16.835Z,117.10
2018-02-21T11:51:16.817Z,119.10
2018-02-21T11:52:16.792Z,128.90
2018-02-21T11:53:16.773Z,118.10
2018-02-21T11:54:16.748Z,114.80
2018-02-21T11:55:17.248Z,118.20
2018-02-21T11:56:16.705Z,123.50
2018-02-21T11:57:16.682Z,119.30
2018-02-21T11:58:16.674Z,122.50
2018-02-21T11:59:16.640Z,122.60
2018-02-21T12:00:16.619Z,123.80
2018-02-21T12:01:16.595Z,127.40
2018-02-21T12:02:16.571Z,125.10
2018-02-21T12:03:16.554Z,126.60
2018-02-21T12:04:16.528Z,126.70
2018-02-21T12:05:16.505Z,124.10
2018-02-21T12:06:16.485Z,129.20
2018-02-21T12:07:16.481Z,139.00
2018-02-21T12:08:16.438Z,129.20
2018-02-21T12:09:16.417Z,123.40
2018-02-21T12:10:16.451Z,127.20
2018-02-21T12:11:16.418Z,123.30
2018-02-21T12:12:16.350Z,131.60
2018-02-21T12:13:16.328Z,126.70
2018-02-21T12:14:16.303Z,121.70
2018-02-21T12:15:16.276Z,125.80
2018-02-21T12:16:16.254Z,128.40
2018-02-21T12:17:16.233Z,128.90
2018-02-21T12:18:16.208Z,124.30
2018-02-21T12:19:16.184Z,120.40
2018-02-21T12:20:16.162Z,115.50
2018-02-21T12:21:16.140Z,116.00
2018-02-21T12:22:16.114Z,115.10
2018-02-21T12:23:16.095Z,115.60
2018-02-21T12:24:16.069Z,115.30
2018-02-21T12:25:16.048Z,107.40
2018-02-21T12:26:16.028Z,115.30
2018-02-21T12:27:16.001Z,106.70
2018-02-21T12:28:15.978Z,105.10